Terminal Aerodrome Forecast
Issued by NWS Wilmington, OH

Home | Current Version | Previous Version | Text Only | Print | Product List | Glossary On
Versions: 1 2 3 4 5 6 7 8 9 10 11 12 13 14 15 16 17 18 19 20 21 22 23
025
FTUS41 KILN 281744
TAFCVG
TAF
KCVG 281744Z 2818/2924 15007KT P6SM VCSH BKN100
     FM282200 14008KT P6SM VCTS BKN060CB
     FM290000 10006KT 5SM -SHRA BR VCTS OVC050CB
      TEMPO 2900/2903 2SM TSRA BR OVC025CB
     FM290400 18008KT 5SM -SHRA BR VCTS OVC035CB
     FM291000 19008KT P6SM VCSH OVC015
     FM291500 20010KT P6SM BKN040=

USA.gov is the U.S. government's official web portal to all federal, state and local government web resources and services.